sensor_id;sensor_type;location;lat;lon;timestamp;P1;durP1;ratioP1;P2;durP2;ratioP2
9759;SDS011;4919;48.792;9.202;2022-10-16T00:01:17;3.47;;;2.50;;
9759;SDS011;4919;48.792;9.202;2022-10-16T00:03:46;5.77;;;2.53;;
9759;SDS011;4919;48.792;9.202;2022-10-16T00:06:14;2.77;;;2.50;;
9759;SDS011;4919;48.792;9.202;2022-10-16T00:08:43;3.20;;;2.50;;
9759;SDS011;4919;48.792;9.202;2022-10-16T00:13:39;3.53;;;2.40;;
9759;SDS011;4919;48.792;9.202;2022-10-16T00:16:07;4.63;;;2.23;;
9759;SDS011;4919;48.792;9.202;2022-10-16T00:18:35;2.80;;;2.37;;
9759;SDS011;4919;48.792;9.202;2022-10-16T00:21:06;2.50;;;2.30;;
9759;SDS011;4919;48.792;9.202;2022-10-16T00:23:35;4.43;;;2.67;;
9759;SDS011;4919;48.792;9.202;2022-10-16T00:26:03;3.23;;;2.57;;
9759;SDS011;4919;48.792;9.202;2022-10-16T00:28:32;2.80;;;2.30;;
9759;SDS011;4919;48.792;9.202;2022-10-16T00:31:02;5.83;;;2.30;;
9759;SDS011;4919;48.792;9.202;2022-10-16T00:33:33;2.40;;;2.03;;
9759;SDS011;4919;48.792;9.202;2022-10-16T00:36:01;2.37;;;2.17;;
9759;SDS011;4919;48.792;9.202;2022-10-16T00:38:29;2.60;;;2.30;;
9759;SDS011;4919;48.792;9.202;2022-10-16T00:40:56;2.90;;;2.47;;
9759;SDS011;4919;48.792;9.202;2022-10-16T00:43:37;3.00;;;2.67;;
9759;SDS011;4919;48.792;9.202;2022-10-16T00:46:16;3.20;;;2.20;;
9759;SDS011;4919;48.792;9.202;2022-10-16T00:49:04;2.50;;;2.30;;
9759;SDS011;4919;48.792;9.202;2022-10-16T00:51:50;2.47;;;2.20;;
9759;SDS011;4919;48.792;9.202;2022-10-16T00:54:23;2.77;;;2.17;;
9759;SDS011;4919;48.792;9.202;2022-10-16T00:56:56;3.83;;;2.27;;
9759;SDS011;4919;48.792;9.202;2022-10-16T00:59:27;3.63;;;2.40;;
9759;SDS011;4919;48.792;9.202;2022-10-16T01:01:56;2.50;;;2.30;;
9759;SDS011;4919;48.792;9.202;2022-10-16T01:04:24;2.40;;;2.20;;
9759;SDS011;4919;48.792;9.202;2022-10-16T01:12:02;2.80;;;2.30;;
9759;SDS011;4919;48.792;9.202;2022-10-16T01:17:12;3.97;;;2.20;;
9759;SDS011;4919;48.792;9.202;2022-10-16T01:19:50;2.47;;;2.23;;
9759;SDS011;4919;48.792;9.202;2022-10-16T01:22:32;2.40;;;2.20;;
9759;SDS011;4919;48.792;9.202;2022-10-16T01:28:27;2.97;;;2.30;;
9759;SDS011;4919;48.792;9.202;2022-10-16T01:31:11;2.73;;;2.27;;
9759;SDS011;4919;48.792;9.202;2022-10-16T01:33:44;2.13;;;1.93;;
9759;SDS011;4919;48.792;9.202;2022-10-16T01:36:19;4.50;;;2.20;;
9759;SDS011;4919;48.792;9.202;2022-10-16T01:38:49;2.30;;;2.10;;
9759;SDS011;4919;48.792;9.202;2022-10-16T01:41:20;2.40;;;2.20;;
9759;SDS011;4919;48.792;9.202;2022-10-16T01:46:30;3.17;;;2.20;;
9759;SDS011;4919;48.792;9.202;2022-10-16T01:48:59;2.83;;;2.40;;
9759;SDS011;4919;48.792;9.202;2022-10-16T01:51:28;2.60;;;2.10;;
9759;SDS011;4919;48.792;9.202;2022-10-16T01:53:56;3.13;;;2.13;;
9759;SDS011;4919;48.792;9.202;2022-10-16T01:56:26;2.77;;;2.30;;
9759;SDS011;4919;48.792;9.202;2022-10-16T01:59:16;3.90;;;2.30;;
9759;SDS011;4919;48.792;9.202;2022-10-16T02:01:45;3.13;;;2.00;;
9759;SDS011;4919;48.792;9.202;2022-10-16T02:04:21;2.53;;;2.27;;
9759;SDS011;4919;48.792;9.202;2022-10-16T02:06:54;2.67;;;2.23;;
9759;SDS011;4919;48.792;9.202;2022-10-16T02:09:21;2.33;;;2.10;;
9759;SDS011;4919;48.792;9.202;2022-10-16T02:11:48;2.83;;;2.10;;
9759;SDS011;4919;48.792;9.202;2022-10-16T02:14:18;2.40;;;2.20;;
9759;SDS011;4919;48.792;9.202;2022-10-16T02:16:46;3.17;;;2.10;;
9759;SDS011;4919;48.792;9.202;2022-10-16T02:19:13;2.50;;;2.27;;
9759;SDS011;4919;48.792;9.202;2022-10-16T02:21:43;3.43;;;2.20;;
9759;SDS011;4919;48.792;9.202;2022-10-16T02:32:47;3.27;;;2.10;;
9759;SDS011;4919;48.792;9.202;2022-10-16T02:35:16;5.00;;;2.50;;
9759;SDS011;4919;48.792;9.202;2022-10-16T02:37:46;3.20;;;2.20;;
9759;SDS011;4919;48.792;9.202;2022-10-16T02:40:15;2.93;;;2.13;;
9759;SDS011;4919;48.792;9.202;2022-10-16T02:42:49;2.33;;;2.13;;
9759;SDS011;4919;48.792;9.202;2022-10-16T02:45:18;4.03;;;2.40;;
9759;SDS011;4919;48.792;9.202;2022-10-16T02:47:45;2.50;;;2.30;;
9759;SDS011;4919;48.792;9.202;2022-10-16T02:50:12;2.70;;;2.17;;
9759;SDS011;4919;48.792;9.202;2022-10-16T02:52:40;3.03;;;2.30;;
9759;SDS011;4919;48.792;9.202;2022-10-16T02:55:07;2.13;;;1.93;;
9759;SDS011;4919;48.792;9.202;2022-10-16T02:57:34;2.67;;;2.03;;
9759;SDS011;4919;48.792;9.202;2022-10-16T03:00:12;2.40;;;2.20;;
9759;SDS011;4919;48.792;9.202;2022-10-16T03:02:41;3.27;;;2.20;;
9759;SDS011;4919;48.792;9.202;2022-10-16T03:05:08;2.63;;;2.13;;
9759;SDS011;4919;48.792;9.202;2022-10-16T03:07:36;3.73;;;2.03;;
9759;SDS011;4919;48.792;9.202;2022-10-16T03:10:02;3.30;;;2.10;;
9759;SDS011;4919;48.792;9.202;2022-10-16T03:12:29;2.40;;;2.20;;
9759;SDS011;4919;48.792;9.202;2022-10-16T03:14:57;2.70;;;2.20;;
9759;SDS011;4919;48.792;9.202;2022-10-16T03:17:24;3.40;;;2.40;;
9759;SDS011;4919;48.792;9.202;2022-10-16T03:19:52;3.23;;;2.23;;
9759;SDS011;4919;48.792;9.202;2022-10-16T03:22:19;2.80;;;2.20;;
9759;SDS011;4919;48.792;9.202;2022-10-16T03:24:45;2.30;;;2.10;;
9759;SDS011;4919;48.792;9.202;2022-10-16T03:27:12;3.03;;;2.30;;
9759;SDS011;4919;48.792;9.202;2022-10-16T03:29:39;3.10;;;2.20;;
9759;SDS011;4919;48.792;9.202;2022-10-16T03:32:06;3.13;;;2.10;;
9759;SDS011;4919;48.792;9.202;2022-10-16T03:34:33;2.50;;;2.20;;
9759;SDS011;4919;48.792;9.202;2022-10-16T03:37:00;3.40;;;2.20;;
9759;SDS011;4919;48.792;9.202;2022-10-16T03:39:27;2.20;;;2.03;;
9759;SDS011;4919;48.792;9.202;2022-10-16T03:41:53;2.30;;;2.10;;
9759;SDS011;4919;48.792;9.202;2022-10-16T03:44:20;3.17;;;2.40;;
9759;SDS011;4919;48.792;9.202;2022-10-16T03:46:48;3.17;;;2.60;;
9759;SDS011;4919;48.792;9.202;2022-10-16T03:49:14;3.17;;;2.40;;
9759;SDS011;4919;48.792;9.202;2022-10-16T03:51:41;2.33;;;2.13;;
9759;SDS011;4919;48.792;9.202;2022-10-16T03:54:09;2.97;;;2.40;;
9759;SDS011;4919;48.792;9.202;2022-10-16T03:56:36;2.60;;;2.37;;
9759;SDS011;4919;48.792;9.202;2022-10-16T03:59:03;2.30;;;2.10;;
9759;SDS011;4919;48.792;9.202;2022-10-16T04:01:30;3.10;;;2.40;;
9759;SDS011;4919;48.792;9.202;2022-10-16T04:03:56;2.97;;;2.20;;
9759;SDS011;4919;48.792;9.202;2022-10-16T04:06:23;2.77;;;2.10;;
9759;SDS011;4919;48.792;9.202;2022-10-16T04:08:50;4.57;;;2.50;;
9759;SDS011;4919;48.792;9.202;2022-10-16T04:11:17;3.03;;;2.37;;
9759;SDS011;4919;48.792;9.202;2022-10-16T04:13:43;2.50;;;2.30;;
9759;SDS011;4919;48.792;9.202;2022-10-16T04:16:10;3.23;;;2.23;;
9759;SDS011;4919;48.792;9.202;2022-10-16T04:18:37;3.07;;;2.40;;
9759;SDS011;4919;48.792;9.202;2022-10-16T04:21:04;3.90;;;2.53;;
9759;SDS011;4919;48.792;9.202;2022-10-16T04:23:32;3.40;;;2.30;;
9759;SDS011;4919;48.792;9.202;2022-10-16T04:25:59;3.17;;;2.20;;
9759;SDS011;4919;48.792;9.202;2022-10-16T04:28:27;2.40;;;2.20;;
9759;SDS011;4919;48.792;9.202;2022-10-16T04:30:54;2.60;;;2.40;;
9759;SDS011;4919;48.792;9.202;2022-10-16T04:33:21;2.40;;;2.20;;
9759;SDS011;4919;48.792;9.202;2022-10-16T04:35:48;2.80;;;2.30;;
9759;SDS011;4919;48.792;9.202;2022-10-16T04:38:15;4.27;;;2.40;;
9759;SDS011;4919;48.792;9.202;2022-10-16T04:40:42;2.57;;;2.37;;
9759;SDS011;4919;48.792;9.202;2022-10-16T04:43:09;3.30;;;2.00;;
9759;SDS011;4919;48.792;9.202;2022-10-16T04:45:36;3.27;;;2.30;;
9759;SDS011;4919;48.792;9.202;2022-10-16T04:48:03;2.93;;;2.40;;
9759;SDS011;4919;48.792;9.202;2022-10-16T04:50:30;2.40;;;2.20;;
9759;SDS011;4919;48.792;9.202;2022-10-16T04:53:04;2.50;;;2.00;;
9759;SDS011;4919;48.792;9.202;2022-10-16T04:55:31;2.40;;;2.20;;
9759;SDS011;4919;48.792;9.202;2022-10-16T04:57:58;2.53;;;2.30;;
9759;SDS011;4919;48.792;9.202;2022-10-16T05:00:25;2.80;;;2.30;;
9759;SDS011;4919;48.792;9.202;2022-10-16T05:02:52;2.50;;;2.13;;
9759;SDS011;4919;48.792;9.202;2022-10-16T05:05:19;2.47;;;2.20;;
9759;SDS011;4919;48.792;9.202;2022-10-16T05:07:46;2.47;;;2.27;;
9759;SDS011;4919;48.792;9.202;2022-10-16T05:10:14;2.70;;;2.40;;
9759;SDS011;4919;48.792;9.202;2022-10-16T05:12:41;4.57;;;2.30;;
9759;SDS011;4919;48.792;9.202;2022-10-16T05:15:08;5.37;;;2.50;;
9759;SDS011;4919;48.792;9.202;2022-10-16T05:17:35;3.00;;;2.50;;
9759;SDS011;4919;48.792;9.202;2022-10-16T05:20:09;3.30;;;2.30;;
9759;SDS011;4919;48.792;9.202;2022-10-16T05:22:37;3.07;;;2.30;;
9759;SDS011;4919;48.792;9.202;2022-10-16T05:25:04;3.07;;;2.03;;
9759;SDS011;4919;48.792;9.202;2022-10-16T05:27:31;2.40;;;2.20;;
9759;SDS011;4919;48.792;9.202;2022-10-16T05:29:58;2.17;;;1.97;;
9759;SDS011;4919;48.792;9.202;2022-10-16T05:32:25;3.90;;;2.47;;
9759;SDS011;4919;48.792;9.202;2022-10-16T05:34:51;2.60;;;2.40;;
9759;SDS011;4919;48.792;9.202;2022-10-16T05:37:18;3.47;;;2.37;;
9759;SDS011;4919;48.792;9.202;2022-10-16T05:39:45;2.90;;;2.47;;
9759;SDS011;4919;48.792;9.202;2022-10-16T05:42:12;3.37;;;2.60;;
9759;SDS011;4919;48.792;9.202;2022-10-16T05:44:39;5.13;;;2.47;;
9759;SDS011;4919;48.792;9.202;2022-10-16T05:47:06;2.53;;;2.33;;
9759;SDS011;4919;48.792;9.202;2022-10-16T05:49:33;2.97;;;2.27;;
9759;SDS011;4919;48.792;9.202;2022-10-16T05:52:05;3.17;;;2.47;;
9759;SDS011;4919;48.792;9.202;2022-10-16T05:54:32;2.70;;;2.50;;
9759;SDS011;4919;48.792;9.202;2022-10-16T05:56:59;3.47;;;2.80;;
9759;SDS011;4919;48.792;9.202;2022-10-16T05:59:26;2.80;;;2.50;;
9759;SDS011;4919;48.792;9.202;2022-10-16T06:01:52;3.17;;;2.43;;
9759;SDS011;4919;48.792;9.202;2022-10-16T06:04:19;4.20;;;2.93;;
9759;SDS011;4919;48.792;9.202;2022-10-16T06:06:46;2.50;;;2.30;;
9759;SDS011;4919;48.792;9.202;2022-10-16T06:09:13;3.63;;;2.60;;
9759;SDS011;4919;48.792;9.202;2022-10-16T06:11:40;2.50;;;2.20;;
9759;SDS011;4919;48.792;9.202;2022-10-16T06:14:07;3.23;;;2.50;;
9759;SDS011;4919;48.792;9.202;2022-10-16T06:16:35;3.40;;;2.40;;
9759;SDS011;4919;48.792;9.202;2022-10-16T06:19:03;3.07;;;2.50;;
9759;SDS011;4919;48.792;9.202;2022-10-16T06:21:32;2.70;;;2.47;;
9759;SDS011;4919;48.792;9.202;2022-10-16T06:23:59;3.20;;;2.60;;
9759;SDS011;4919;48.792;9.202;2022-10-16T06:26:27;2.70;;;2.37;;
9759;SDS011;4919;48.792;9.202;2022-10-16T06:28:56;4.37;;;2.60;;
9759;SDS011;4919;48.792;9.202;2022-10-16T06:31:25;3.33;;;2.70;;
9759;SDS011;4919;48.792;9.202;2022-10-16T06:33:55;3.30;;;2.40;;
9759;SDS011;4919;48.792;9.202;2022-10-16T06:36:23;2.67;;;2.20;;
9759;SDS011;4919;48.792;9.202;2022-10-16T06:38:51;4.10;;;2.43;;
9759;SDS011;4919;48.792;9.202;2022-10-16T06:41:19;3.17;;;2.30;;
9759;SDS011;4919;48.792;9.202;2022-10-16T06:43:47;3.60;;;2.30;;
9759;SDS011;4919;48.792;9.202;2022-10-16T06:46:15;2.70;;;2.50;;
9759;SDS011;4919;48.792;9.202;2022-10-16T06:48:44;2.77;;;2.40;;
9759;SDS011;4919;48.792;9.202;2022-10-16T06:51:12;2.70;;;2.50;;
9759;SDS011;4919;48.792;9.202;2022-10-16T06:53:44;2.40;;;2.20;;
9759;SDS011;4919;48.792;9.202;2022-10-16T06:56:30;2.50;;;2.30;;
9759;SDS011;4919;48.792;9.202;2022-10-16T06:58:58;3.27;;;2.10;;
9759;SDS011;4919;48.792;9.202;2022-10-16T07:01:25;4.33;;;2.40;;
9759;SDS011;4919;48.792;9.202;2022-10-16T07:03:53;4.17;;;2.50;;
9759;SDS011;4919;48.792;9.202;2022-10-16T07:06:21;2.63;;;2.30;;
9759;SDS011;4919;48.792;9.202;2022-10-16T07:08:49;2.47;;;2.20;;
9759;SDS011;4919;48.792;9.202;2022-10-16T07:11:17;2.37;;;2.17;;
9759;SDS011;4919;48.792;9.202;2022-10-16T07:13:46;2.30;;;2.03;;
9759;SDS011;4919;48.792;9.202;2022-10-16T07:16:21;2.10;;;1.90;;
9759;SDS011;4919;48.792;9.202;2022-10-16T07:18:55;2.90;;;2.30;;
9759;SDS011;4919;48.792;9.202;2022-10-16T07:21:30;2.63;;;2.30;;
9759;SDS011;4919;48.792;9.202;2022-10-16T07:24:02;3.80;;;2.40;;
9759;SDS011;4919;48.792;9.202;2022-10-16T07:26:31;3.10;;;2.30;;
9759;SDS011;4919;48.792;9.202;2022-10-16T07:29:00;4.77;;;2.20;;
9759;SDS011;4919;48.792;9.202;2022-10-16T07:31:27;2.80;;;2.10;;
9759;SDS011;4919;48.792;9.202;2022-10-16T07:33:54;2.50;;;2.00;;
9759;SDS011;4919;48.792;9.202;2022-10-16T07:36:21;4.77;;;2.00;;
9759;SDS011;4919;48.792;9.202;2022-10-16T07:38:48;2.60;;;2.00;;
9759;SDS011;4919;48.792;9.202;2022-10-16T07:41:20;1.93;;;1.83;;
9759;SDS011;4919;48.792;9.202;2022-10-16T07:43:51;2.40;;;1.77;;
9759;SDS011;4919;48.792;9.202;2022-10-16T07:46:19;1.87;;;1.70;;
9759;SDS011;4919;48.792;9.202;2022-10-16T07:48:47;2.47;;;1.83;;
9759;SDS011;4919;48.792;9.202;2022-10-16T07:51:15;4.53;;;1.70;;
9759;SDS011;4919;48.792;9.202;2022-10-16T07:53:44;3.00;;;1.80;;
9759;SDS011;4919;48.792;9.202;2022-10-16T07:56:11;1.63;;;1.53;;
9759;SDS011;4919;48.792;9.202;2022-10-16T07:58:40;1.83;;;1.40;;
9759;SDS011;4919;48.792;9.202;2022-10-16T08:01:08;2.17;;;1.50;;
9759;SDS011;4919;48.792;9.202;2022-10-16T08:03:36;1.70;;;1.60;;
9759;SDS011;4919;48.792;9.202;2022-10-16T08:06:03;1.83;;;1.60;;
9759;SDS011;4919;48.792;9.202;2022-10-16T08:08:31;3.23;;;2.00;;
9759;SDS011;4919;48.792;9.202;2022-10-16T08:10:58;2.37;;;1.57;;
9759;SDS011;4919;48.792;9.202;2022-10-16T08:13:25;3.50;;;1.50;;
9759;SDS011;4919;48.792;9.202;2022-10-16T08:15:53;4.53;;;3.97;;
9759;SDS011;4919;48.792;9.202;2022-10-16T08:18:21;1.70;;;1.60;;
9759;SDS011;4919;48.792;9.202;2022-10-16T08:20:54;3.90;;;3.00;;
9759;SDS011;4919;48.792;9.202;2022-10-16T08:23:22;1.77;;;1.67;;
9759;SDS011;4919;48.792;9.202;2022-10-16T08:25:49;2.40;;;2.20;;
9759;SDS011;4919;48.792;9.202;2022-10-16T08:28:16;2.60;;;2.40;;
9759;SDS011;4919;48.792;9.202;2022-10-16T08:30:43;2.43;;;1.90;;
9759;SDS011;4919;48.792;9.202;2022-10-16T08:33:09;2.83;;;2.50;;
9759;SDS011;4919;48.792;9.202;2022-10-16T08:35:36;3.63;;;2.00;;
9759;SDS011;4919;48.792;9.202;2022-10-16T08:38:04;5.87;;;3.80;;
9759;SDS011;4919;48.792;9.202;2022-10-16T08:40:32;1.93;;;1.67;;
9759;SDS011;4919;48.792;9.202;2022-10-16T08:49:01;2.60;;;1.60;;
9759;SDS011;4919;48.792;9.202;2022-10-16T08:51:31;1.40;;;1.30;;
9759;SDS011;4919;48.792;9.202;2022-10-16T08:54:06;1.57;;;1.47;;
9759;SDS011;4919;48.792;9.202;2022-10-16T08:56:45;5.07;;;1.40;;
9759;SDS011;4919;48.792;9.202;2022-10-16T08:59:19;1.53;;;1.37;;
9759;SDS011;4919;48.792;9.202;2022-10-16T09:01:47;1.87;;;1.53;;
9759;SDS011;4919;48.792;9.202;2022-10-16T09:17:54;1.87;;;1.40;;
9759;SDS011;4919;48.792;9.202;2022-10-16T09:20:43;1.40;;;1.30;;
9759;SDS011;4919;48.792;9.202;2022-10-16T09:23:27;2.57;;;1.60;;
9759;SDS011;4919;48.792;9.202;2022-10-16T09:25:56;2.93;;;1.57;;
9759;SDS011;4919;48.792;9.202;2022-10-16T09:28:25;1.83;;;1.20;;
9759;SDS011;4919;48.792;9.202;2022-10-16T09:30:52;3.73;;;2.80;;
9759;SDS011;4919;48.792;9.202;2022-10-16T09:33:21;5.73;;;2.83;;
9759;SDS011;4919;48.792;9.202;2022-10-16T09:35:54;6.37;;;3.37;;
9759;SDS011;4919;48.792;9.202;2022-10-16T09:38:26;2.27;;;1.70;;
9759;SDS011;4919;48.792;9.202;2022-10-16T09:40:58;2.07;;;1.87;;
9759;SDS011;4919;48.792;9.202;2022-10-16T09:43:32;1.73;;;1.40;;
9759;SDS011;4919;48.792;9.202;2022-10-16T09:46:02;2.63;;;2.30;;
9759;SDS011;4919;48.792;9.202;2022-10-16T09:48:48;2.60;;;1.47;;
9759;SDS011;4919;48.792;9.202;2022-10-16T09:53:53;2.20;;;1.67;;
9759;SDS011;4919;48.792;9.202;2022-10-16T09:56:40;1.70;;;1.60;;
9759;SDS011;4919;48.792;9.202;2022-10-16T09:59:10;1.87;;;1.67;;
9759;SDS011;4919;48.792;9.202;2022-10-16T10:01:49;3.83;;;3.40;;
9759;SDS011;4919;48.792;9.202;2022-10-16T10:04:18;2.30;;;1.90;;
9759;SDS011;4919;48.792;9.202;2022-10-16T10:06:53;3.23;;;1.73;;
9759;SDS011;4919;48.792;9.202;2022-10-16T10:09:56;2.67;;;1.40;;
9759;SDS011;4919;48.792;9.202;2022-10-16T10:14:56;3.20;;;1.40;;
9759;SDS011;4919;48.792;9.202;2022-10-16T10:17:24;1.30;;;1.20;;
9759;SDS011;4919;48.792;9.202;2022-10-16T10:19:54;1.67;;;1.20;;
9759;SDS011;4919;48.792;9.202;2022-10-16T10:22:30;1.67;;;1.23;;
9759;SDS011;4919;48.792;9.202;2022-10-16T10:30:48;1.73;;;1.27;;
9759;SDS011;4919;48.792;9.202;2022-10-16T10:33:27;1.40;;;1.30;;
9759;SDS011;4919;48.792;9.202;2022-10-16T10:38:39;1.47;;;1.37;;
9759;SDS011;4919;48.792;9.202;2022-10-16T11:01:32;2.17;;;1.20;;
9759;SDS011;4919;48.792;9.202;2022-10-16T11:04:25;2.00;;;1.10;;
9759;SDS011;4919;48.792;9.202;2022-10-16T11:07:17;1.47;;;1.20;;
9759;SDS011;4919;48.792;9.202;2022-10-16T11:09:48;1.37;;;1.17;;
9759;SDS011;4919;48.792;9.202;2022-10-16T11:12:27;1.20;;;1.10;;
9759;SDS011;4919;48.792;9.202;2022-10-16T11:15:11;1.30;;;1.03;;
9759;SDS011;4919;48.792;9.202;2022-10-16T11:17:48;1.30;;;1.20;;
9759;SDS011;4919;48.792;9.202;2022-10-16T11:20:20;1.13;;;1.03;;
9759;SDS011;4919;48.792;9.202;2022-10-16T11:22:54;1.43;;;1.30;;
9759;SDS011;4919;48.792;9.202;2022-10-16T11:25:29;1.60;;;1.30;;
9759;SDS011;4919;48.792;9.202;2022-10-16T11:28:02;1.20;;;1.13;;
9759;SDS011;4919;48.792;9.202;2022-10-16T11:36:19;1.37;;;1.27;;
9759;SDS011;4919;48.792;9.202;2022-10-16T11:45:42;1.97;;;1.10;;
9759;SDS011;4919;48.792;9.202;2022-10-16T11:48:00;1.33;;;1.20;;
9759;SDS011;4919;48.792;9.202;2022-10-16T11:50:51;2.50;;;1.20;;
9759;SDS011;4919;48.792;9.202;2022-10-16T11:53:28;1.67;;;1.17;;
9759;SDS011;4919;48.792;9.202;2022-10-16T11:56:17;1.23;;;1.13;;
9759;SDS011;4919;48.792;9.202;2022-10-16T11:59:07;1.13;;;1.10;;
9759;SDS011;4919;48.792;9.202;2022-10-16T12:01:45;1.67;;;1.00;;
9759;SDS011;4919;48.792;9.202;2022-10-16T12:04:32;1.10;;;1.10;;
9759;SDS011;4919;48.792;9.202;2022-10-16T12:07:19;1.17;;;0.97;;
9759;SDS011;4919;48.792;9.202;2022-10-16T12:09:53;1.57;;;1.27;;
9759;SDS011;4919;48.792;9.202;2022-10-16T12:12:26;1.20;;;1.10;;
9759;SDS011;4919;48.792;9.202;2022-10-16T12:18:21;2.33;;;1.20;;
9759;SDS011;4919;48.792;9.202;2022-10-16T12:20:55;1.27;;;1.00;;
9759;SDS011;4919;48.792;9.202;2022-10-16T12:23:25;1.40;;;1.30;;
9759;SDS011;4919;48.792;9.202;2022-10-16T12:25:56;1.30;;;1.20;;
9759;SDS011;4919;48.792;9.202;2022-10-16T12:28:31;1.00;;;1.00;;
9759;SDS011;4919;48.792;9.202;2022-10-16T12:31:01;2.50;;;1.20;;
9759;SDS011;4919;48.792;9.202;2022-10-16T12:33:36;1.40;;;0.80;;
9759;SDS011;4919;48.792;9.202;2022-10-16T12:36:15;1.50;;;1.17;;
9759;SDS011;4919;48.792;9.202;2022-10-16T12:38:53;1.10;;;1.00;;
9759;SDS011;4919;48.792;9.202;2022-10-16T12:41:33;1.60;;;1.10;;
9759;SDS011;4919;48.792;9.202;2022-10-16T12:44:02;1.10;;;1.00;;
9759;SDS011;4919;48.792;9.202;2022-10-16T12:51:43;2.33;;;0.90;;
9759;SDS011;4919;48.792;9.202;2022-10-16T13:06:09;1.33;;;1.00;;
9759;SDS011;4919;48.792;9.202;2022-10-16T13:20:10;2.60;;;1.10;;
9759;SDS011;4919;48.792;9.202;2022-10-16T13:22:51;1.00;;;1.00;;
9759;SDS011;4919;48.792;9.202;2022-10-16T13:28:19;1.80;;;1.07;;
9759;SDS011;4919;48.792;9.202;2022-10-16T13:30:52;0.90;;;0.90;;
9759;SDS011;4919;48.792;9.202;2022-10-16T13:33:25;1.83;;;1.00;;
9759;SDS011;4919;48.792;9.202;2022-10-16T13:36:02;1.40;;;1.00;;
9759;SDS011;4919;48.792;9.202;2022-10-16T13:38:31;0.83;;;0.83;;
9759;SDS011;4919;48.792;9.202;2022-10-16T13:41:03;1.50;;;1.00;;
9759;SDS011;4919;48.792;9.202;2022-10-16T13:46:05;1.10;;;1.00;;
9759;SDS011;4919;48.792;9.202;2022-10-16T13:48:33;1.00;;;0.90;;
9759;SDS011;4919;48.792;9.202;2022-10-16T13:51:05;1.20;;;1.10;;
9759;SDS011;4919;48.792;9.202;2022-10-16T13:53:38;1.87;;;1.40;;
9759;SDS011;4919;48.792;9.202;2022-10-16T13:56:06;0.97;;;0.97;;
9759;SDS011;4919;48.792;9.202;2022-10-16T13:58:36;1.20;;;1.00;;
9759;SDS011;4919;48.792;9.202;2022-10-16T14:01:15;2.93;;;1.10;;
9759;SDS011;4919;48.792;9.202;2022-10-16T14:04:02;2.00;;;1.17;;
9759;SDS011;4919;48.792;9.202;2022-10-16T14:06:33;1.13;;;1.10;;
9759;SDS011;4919;48.792;9.202;2022-10-16T14:09:07;1.00;;;1.00;;
9759;SDS011;4919;48.792;9.202;2022-10-16T14:12:01;1.27;;;1.10;;
9759;SDS011;4919;48.792;9.202;2022-10-16T14:14:43;1.00;;;1.00;;
9759;SDS011;4919;48.792;9.202;2022-10-16T14:17:20;1.00;;;1.00;;
9759;SDS011;4919;48.792;9.202;2022-10-16T14:19:51;1.17;;;1.10;;
9759;SDS011;4919;48.792;9.202;2022-10-16T14:22:35;1.50;;;1.30;;
9759;SDS011;4919;48.792;9.202;2022-10-16T14:27:45;2.20;;;1.10;;
9759;SDS011;4919;48.792;9.202;2022-10-16T14:30:33;1.60;;;1.20;;
9759;SDS011;4919;48.792;9.202;2022-10-16T14:33:03;1.60;;;1.33;;
9759;SDS011;4919;48.792;9.202;2022-10-16T14:37:59;1.10;;;1.10;;
9759;SDS011;4919;48.792;9.202;2022-10-16T14:40:34;1.17;;;1.07;;
9759;SDS011;4919;48.792;9.202;2022-10-16T14:43:03;1.30;;;1.20;;
9759;SDS011;4919;48.792;9.202;2022-10-16T14:45:32;1.30;;;1.20;;
9759;SDS011;4919;48.792;9.202;2022-10-16T14:48:05;4.90;;;1.33;;
9759;SDS011;4919;48.792;9.202;2022-10-16T14:50:45;2.77;;;1.20;;
9759;SDS011;4919;48.792;9.202;2022-10-16T14:53:12;1.20;;;1.13;;
9759;SDS011;4919;48.792;9.202;2022-10-16T14:55:39;1.83;;;1.10;;
9759;SDS011;4919;48.792;9.202;2022-10-16T14:58:14;1.30;;;1.20;;
9759;SDS011;4919;48.792;9.202;2022-10-16T15:00:46;2.73;;;1.30;;
9759;SDS011;4919;48.792;9.202;2022-10-16T15:03:13;1.73;;;1.10;;
9759;SDS011;4919;48.792;9.202;2022-10-16T15:05:40;3.97;;;1.30;;
9759;SDS011;4919;48.792;9.202;2022-10-16T15:08:07;1.63;;;1.00;;
9759;SDS011;4919;48.792;9.202;2022-10-16T15:10:36;1.30;;;1.20;;
9759;SDS011;4919;48.792;9.202;2022-10-16T15:13:05;3.13;;;1.50;;
9759;SDS011;4919;48.792;9.202;2022-10-16T15:15:33;2.00;;;1.60;;
9759;SDS011;4919;48.792;9.202;2022-10-16T15:18:06;1.77;;;1.40;;
9759;SDS011;4919;48.792;9.202;2022-10-16T15:20:34;1.77;;;1.30;;
9759;SDS011;4919;48.792;9.202;2022-10-16T15:23:04;1.20;;;1.10;;
9759;SDS011;4919;48.792;9.202;2022-10-16T15:25:45;1.53;;;1.20;;
9759;SDS011;4919;48.792;9.202;2022-10-16T15:28:14;2.83;;;2.23;;
9759;SDS011;4919;48.792;9.202;2022-10-16T15:30:43;6.80;;;4.27;;
9759;SDS011;4919;48.792;9.202;2022-10-16T15:33:13;8.83;;;4.47;;
9759;SDS011;4919;48.792;9.202;2022-10-16T15:35:41;3.70;;;2.50;;
9759;SDS011;4919;48.792;9.202;2022-10-16T15:38:12;3.70;;;2.20;;
9759;SDS011;4919;48.792;9.202;2022-10-16T15:40:40;2.00;;;1.50;;
9759;SDS011;4919;48.792;9.202;2022-10-16T15:43:07;3.90;;;1.23;;
9759;SDS011;4919;48.792;9.202;2022-10-16T15:45:35;1.47;;;1.37;;
9759;SDS011;4919;48.792;9.202;2022-10-16T15:48:02;2.60;;;1.50;;
9759;SDS011;4919;48.792;9.202;2022-10-16T15:50:29;2.37;;;1.83;;
9759;SDS011;4919;48.792;9.202;2022-10-16T15:52:57;4.77;;;2.50;;
9759;SDS011;4919;48.792;9.202;2022-10-16T15:55:24;5.30;;;2.27;;
9759;SDS011;4919;48.792;9.202;2022-10-16T15:57:51;2.80;;;1.73;;
9759;SDS011;4919;48.792;9.202;2022-10-16T16:00:18;4.00;;;2.70;;
9759;SDS011;4919;48.792;9.202;2022-10-16T16:02:52;6.07;;;2.93;;
9759;SDS011;4919;48.792;9.202;2022-10-16T16:05:20;4.73;;;2.53;;
9759;SDS011;4919;48.792;9.202;2022-10-16T16:07:48;3.33;;;2.70;;
9759;SDS011;4919;48.792;9.202;2022-10-16T16:10:17;8.97;;;6.43;;
9759;SDS011;4919;48.792;9.202;2022-10-16T16:12:45;9.37;;;8.30;;
9759;SDS011;4919;48.792;9.202;2022-10-16T16:15:19;5.63;;;4.33;;
9759;SDS011;4919;48.792;9.202;2022-10-16T16:17:47;5.77;;;3.80;;
9759;SDS011;4919;48.792;9.202;2022-10-16T16:20:14;5.53;;;3.20;;
9759;SDS011;4919;48.792;9.202;2022-10-16T16:22:41;7.70;;;5.73;;
9759;SDS011;4919;48.792;9.202;2022-10-16T16:25:08;14.90;;;8.67;;
9759;SDS011;4919;48.792;9.202;2022-10-16T16:27:35;19.73;;;14.03;;
9759;SDS011;4919;48.792;9.202;2022-10-16T16:30:08;25.43;;;16.80;;
9759;SDS011;4919;48.792;9.202;2022-10-16T16:32:40;12.77;;;8.30;;
9759;SDS011;4919;48.792;9.202;2022-10-16T16:35:08;4.50;;;3.10;;
9759;SDS011;4919;48.792;9.202;2022-10-16T16:37:35;9.07;;;5.07;;
9759;SDS011;4919;48.792;9.202;2022-10-16T16:40:02;10.37;;;6.63;;
9759;SDS011;4919;48.792;9.202;2022-10-16T16:42:29;12.33;;;9.23;;
9759;SDS011;4919;48.792;9.202;2022-10-16T16:44:56;8.27;;;6.63;;
9759;SDS011;4919;48.792;9.202;2022-10-16T16:47:23;12.00;;;8.63;;
9759;SDS011;4919;48.792;9.202;2022-10-16T16:49:50;5.77;;;4.57;;
9759;SDS011;4919;48.792;9.202;2022-10-16T16:52:17;6.83;;;2.80;;
9759;SDS011;4919;48.792;9.202;2022-10-16T16:54:44;6.23;;;3.40;;
9759;SDS011;4919;48.792;9.202;2022-10-16T16:57:18;21.97;;;15.93;;
9759;SDS011;4919;48.792;9.202;2022-10-16T16:59:46;36.47;;;26.60;;
9759;SDS011;4919;48.792;9.202;2022-10-16T17:02:13;9.10;;;5.70;;
9759;SDS011;4919;48.792;9.202;2022-10-16T17:04:40;5.13;;;3.07;;
9759;SDS011;4919;48.792;9.202;2022-10-16T17:07:07;5.70;;;4.30;;
9759;SDS011;4919;48.792;9.202;2022-10-16T17:09:34;4.90;;;3.73;;
9759;SDS011;4919;48.792;9.202;2022-10-16T17:12:00;10.80;;;3.43;;
9759;SDS011;4919;48.792;9.202;2022-10-16T17:14:27;5.77;;;2.60;;
9759;SDS011;4919;48.792;9.202;2022-10-16T17:16:54;5.13;;;2.60;;
9759;SDS011;4919;48.792;9.202;2022-10-16T17:19:21;7.87;;;6.73;;
9759;SDS011;4919;48.792;9.202;2022-10-16T17:21:48;8.07;;;5.20;;
9759;SDS011;4919;48.792;9.202;2022-10-16T17:24:17;7.37;;;6.67;;
9759;SDS011;4919;48.792;9.202;2022-10-16T17:26:46;8.57;;;5.67;;
9759;SDS011;4919;48.792;9.202;2022-10-16T17:29:14;4.97;;;3.90;;
9759;SDS011;4919;48.792;9.202;2022-10-16T17:31:43;6.73;;;3.83;;
9759;SDS011;4919;48.792;9.202;2022-10-16T17:34:10;5.37;;;2.63;;
9759;SDS011;4919;48.792;9.202;2022-10-16T17:36:38;9.67;;;2.50;;
9759;SDS011;4919;48.792;9.202;2022-10-16T17:39:15;2.50;;;2.30;;
9759;SDS011;4919;48.792;9.202;2022-10-16T17:41:46;4.60;;;1.90;;
9759;SDS011;4919;48.792;9.202;2022-10-16T17:44:13;7.97;;;1.80;;
9759;SDS011;4919;48.792;9.202;2022-10-16T17:46:46;5.13;;;2.00;;
9759;SDS011;4919;48.792;9.202;2022-10-16T17:49:14;7.63;;;2.30;;